createdAt,value
2023-01-29T00:00:45.576Z,1.24
2023-01-29T00:04:07.349Z,1.24
2023-01-29T00:07:29.425Z,1.26
2023-01-29T00:10:52.103Z,1.25
2023-01-29T00:14:13.823Z,1.28
2023-01-29T00:17:35.854Z,1.27
2023-01-29T00:20:57.789Z,1.27
2023-01-29T00:24:19.296Z,1.26
2023-01-29T00:27:43.862Z,1.26
2023-01-29T00:31:09.651Z,1.27
2023-01-29T00:34:31.242Z,1.25
2023-01-29T00:37:52.941Z,1.24
2023-01-29T00:41:34.353Z,1.23
2023-01-29T00:44:59.969Z,1.25
2023-01-29T00:48:21.709Z,1.26
2023-01-29T00:51:43.408Z,1.27
2023-01-29T00:55:07.647Z,1.23
2023-01-29T00:58:34.510Z,1.23
2023-01-29T01:02:15.310Z,1.21
2023-01-29T01:05:37.022Z,1.21
2023-01-29T01:09:16.141Z,1.21
2023-01-29T01:12:37.609Z,1.23
2023-01-29T01:15:59.329Z,1.23
2023-01-29T01:19:22.401Z,1.21
2023-01-29T01:22:44.015Z,1.21
2023-01-29T01:26:10.440Z,1.22
2023-01-29T01:29:32.071Z,1.23
2023-01-29T01:32:53.832Z,1.24
2023-01-29T01:36:17.183Z,1.24
2023-01-29T01:39:38.906Z,1.25
2023-01-29T01:43:02.023Z,1.19
2023-01-29T01:46:24.451Z,1.20
2023-01-29T01:49:46.250Z,1.20
2023-01-29T01:53:12.241Z,1.19
2023-01-29T01:56:40.830Z,1.20
2023-01-29T02:00:11.423Z,1.18
2023-01-29T02:03:59.375Z,1.18
2023-01-29T02:07:38.954Z,1.19
2023-01-29T02:11:02.519Z,1.20
2023-01-29T02:14:25.294Z,1.20
2023-01-29T02:17:49.810Z,1.17
2023-01-29T02:21:29.261Z,1.17
2023-01-29T02:25:09.826Z,1.17
2023-01-29T02:28:41.177Z,1.14
2023-01-29T02:32:17.257Z,1.15
2023-01-29T02:35:43.322Z,1.17
2023-01-29T02:39:14.258Z,1.20
2023-01-29T02:42:43.471Z,1.21
2023-01-29T02:46:12.743Z,1.22
2023-01-29T02:49:42.738Z,1.25
2023-01-29T02:53:10.616Z,1.26
2023-01-29T02:56:40.101Z,1.25
2023-01-29T03:00:07.000Z,1.23
2023-01-29T03:03:37.284Z,1.25
2023-01-29T03:07:04.538Z,1.28
2023-01-29T03:10:31.036Z,1.30
2023-01-29T03:13:58.200Z,1.30
2023-01-29T03:17:22.246Z,1.34
2023-01-29T03:20:49.213Z,1.33
2023-01-29T03:24:31.997Z,1.34
2023-01-29T03:28:15.771Z,1.33
2023-01-29T03:31:57.158Z,1.35
2023-01-29T03:35:36.820Z,1.34
2023-01-29T03:39:00.929Z,1.34
2023-01-29T03:42:29.840Z,1.36
2023-01-29T03:46:01.571Z,1.36
2023-01-29T03:49:31.489Z,1.35
2023-01-29T03:53:01.595Z,1.36
2023-01-29T03:56:38.685Z,1.33
2023-01-29T04:00:08.446Z,1.33
2023-01-29T04:03:41.899Z,1.36
2023-01-29T04:07:09.879Z,1.36
2023-01-29T04:10:35.851Z,1.38
2023-01-29T04:14:02.117Z,1.37
2023-01-29T04:17:29.935Z,1.40
2023-01-29T04:21:07.316Z,1.38
2023-01-29T04:24:28.942Z,1.39
2023-01-29T04:27:59.083Z,1.38
2023-01-29T04:31:27.908Z,1.39
2023-01-29T04:35:01.891Z,1.35
2023-01-29T04:38:38.374Z,1.38
2023-01-29T04:42:08.221Z,1.38
2023-01-29T04:45:39.686Z,1.37
2023-01-29T04:49:14.315Z,1.41
2023-01-29T04:52:45.829Z,1.43
2023-01-29T04:56:12.115Z,1.44
2023-01-29T04:59:38.354Z,1.47
2023-01-29T05:03:01.552Z,1.45
2023-01-29T05:06:26.093Z,1.48
2023-01-29T05:09:48.515Z,1.49
2023-01-29T05:13:14.656Z,1.49
2023-01-29T05:16:42.846Z,1.48
2023-01-29T05:20:06.056Z,1.48
2023-01-29T05:23:29.219Z,1.48
2023-01-29T05:27:10.839Z,1.43
2023-01-29T05:30:37.489Z,1.45
2023-01-29T05:33:58.897Z,1.49
2023-01-29T05:37:20.643Z,1.50
2023-01-29T05:40:44.293Z,1.53
2023-01-29T05:44:06.003Z,1.56
2023-01-29T05:47:27.284Z,1.58
2023-01-29T05:50:49.104Z,1.59
2023-01-29T05:54:12.617Z,1.59
2023-01-29T05:57:35.937Z,1.61
2023-01-29T06:00:57.478Z,1.58
2023-01-29T06:04:19.614Z,1.59
2023-01-29T06:07:45.332Z,1.59
2023-01-29T06:11:10.044Z,1.54
2023-01-29T06:14:32.899Z,1.57
2023-01-29T06:17:54.837Z,1.58
2023-01-29T06:21:18.377Z,1.56
2023-01-29T06:24:41.210Z,1.54
2023-01-29T06:28:02.785Z,1.57
2023-01-29T06:31:37.820Z,1.57
2023-01-29T06:35:00.129Z,1.57
2023-01-29T06:38:21.849Z,1.59
2023-01-29T06:41:45.374Z,1.59
2023-01-29T06:45:07.789Z,1.59
2023-01-29T06:48:32.060Z,1.58
2023-01-29T06:51:53.850Z,1.58
2023-01-29T06:55:15.586Z,1.50
2023-01-29T06:58:38.454Z,1.54
2023-01-29T07:01:59.928Z,1.57
2023-01-29T07:05:23.155Z,1.61
2023-01-29T07:08:44.510Z,1.63
2023-01-29T07:12:06.567Z,1.66
2023-01-29T07:15:28.352Z,1.69
2023-01-29T07:18:49.957Z,1.70
2023-01-29T07:22:13.071Z,1.70
2023-01-29T07:25:35.899Z,1.66
2023-01-29T07:28:57.755Z,1.71
2023-01-29T07:32:19.127Z,1.70
2023-01-29T07:35:42.893Z,1.74
2023-01-29T07:39:05.987Z,1.72
2023-01-29T07:42:27.429Z,1.71
2023-01-29T07:45:49.166Z,1.70
2023-01-29T07:49:10.840Z,1.73
2023-01-29T07:52:33.961Z,1.72
2023-01-29T07:55:57.189Z,1.75
2023-01-29T07:59:18.665Z,1.77
2023-01-29T08:02:40.618Z,1.80
2023-01-29T08:06:02.025Z,1.82
2023-01-29T08:09:23.978Z,1.85
2023-01-29T08:12:47.121Z,1.87
2023-01-29T08:16:09.755Z,1.85
2023-01-29T08:19:31.293Z,1.86
2023-01-29T08:23:00.193Z,1.89
2023-01-29T08:26:22.194Z,1.88
2023-01-29T08:29:45.227Z,1.87
2023-01-29T08:33:07.041Z,1.91
2023-01-29T08:36:28.678Z,1.96
2023-01-29T08:39:50.136Z,1.98
2023-01-29T08:43:13.726Z,2.01
2023-01-29T08:46:37.038Z,2.00
2023-01-29T08:49:58.469Z,2.02
2023-01-29T08:53:24.440Z,2.03
2023-01-29T08:56:45.985Z,2.05
2023-01-29T09:00:09.273Z,2.07
2023-01-29T09:03:31.852Z,2.08
2023-01-29T09:06:53.388Z,2.09
2023-01-29T09:10:14.693Z,2.09
2023-01-29T09:13:36.391Z,2.11
2023-01-29T09:16:58.229Z,2.11
2023-01-29T09:20:21.447Z,2.10
2023-01-29T09:23:42.982Z,2.10
2023-01-29T09:27:05.126Z,2.11
2023-01-29T09:30:26.683Z,2.15
2023-01-29T09:33:48.395Z,2.18
2023-01-29T09:37:11.087Z,2.22
2023-01-29T09:40:38.147Z,2.26
2023-01-29T09:44:03.294Z,2.29
2023-01-29T09:47:27.973Z,2.29
2023-01-29T09:50:52.709Z,2.33
2023-01-29T09:54:22.745Z,2.35
2023-01-29T09:57:48.838Z,2.39
2023-01-29T10:01:17.373Z,2.35
2023-01-29T10:04:59.386Z,2.38
2023-01-29T10:08:47.603Z,2.39
2023-01-29T10:12:24.299Z,2.42
2023-01-29T10:15:57.826Z,2.38
2023-01-29T10:19:53.214Z,2.42
2023-01-29T10:23:22.790Z,2.45
2023-01-29T10:26:44.407Z,2.46
2023-01-29T10:30:21.046Z,2.46
2023-01-29T10:34:03.934Z,2.43
2023-01-29T10:37:33.852Z,2.52
2023-01-29T10:41:08.067Z,2.57
2023-01-29T10:44:41.315Z,2.57
2023-01-29T10:48:34.712Z,2.60
2023-01-29T10:52:17.182Z,2.58
2023-01-29T10:55:48.862Z,2.63
2023-01-29T10:59:28.778Z,2.66
2023-01-29T11:02:52.914Z,2.67
2023-01-29T11:06:20.898Z,2.68
2023-01-29T11:09:47.482Z,2.69
2023-01-29T11:13:15.918Z,2.70
2023-01-29T11:16:43.586Z,2.70
2023-01-29T11:20:26.484Z,2.68
2023-01-29T11:23:49.967Z,2.74
2023-01-29T11:27:17.250Z,2.73
2023-01-29T11:30:40.309Z,2.77
2023-01-29T11:34:07.039Z,2.80
2023-01-29T11:37:34.914Z,2.86
2023-01-29T11:41:07.633Z,2.93
2023-01-29T11:44:32.824Z,3.01
2023-01-29T11:47:56.640Z,3.05
2023-01-29T11:51:24.724Z,3.08
2023-01-29T11:54:50.279Z,3.09
2023-01-29T11:58:18.086Z,3.13
2023-01-29T12:01:42.265Z,3.19
2023-01-29T12:05:07.669Z,3.24
2023-01-29T12:08:35.140Z,3.27
2023-01-29T12:11:57.034Z,3.30
2023-01-29T12:15:24.999Z,3.37
2023-01-29T12:18:54.286Z,3.40
2023-01-29T12:22:21.588Z,3.40
2023-01-29T12:25:50.862Z,3.44
2023-01-29T12:29:24.729Z,3.47
2023-01-29T12:32:55.535Z,3.50
2023-01-29T12:36:24.479Z,3.52
2023-01-29T12:39:46.098Z,3.54
2023-01-29T12:43:15.921Z,3.51
2023-01-29T12:46:42.862Z,3.54
2023-01-29T12:50:15.732Z,3.57
2023-01-29T12:53:44.745Z,3.61
2023-01-29T12:57:15.254Z,3.64
2023-01-29T13:00:39.973Z,3.67
2023-01-29T13:04:06.461Z,3.69
2023-01-29T13:07:34.230Z,3.70
2023-01-29T13:10:58.285Z,3.73
2023-01-29T13:14:24.021Z,3.74
2023-01-29T13:17:50.079Z,3.75
2023-01-29T13:21:17.131Z,3.79
2023-01-29T13:24:42.314Z,3.80
2023-01-29T13:28:05.057Z,3.82
2023-01-29T13:31:31.820Z,3.83
2023-01-29T13:34:56.442Z,3.85
2023-01-29T13:38:26.596Z,3.84
2023-01-29T13:41:52.072Z,3.91
2023-01-29T13:45:23.099Z,3.90
2023-01-29T13:48:48.859Z,3.90
2023-01-29T13:52:23.745Z,3.91
2023-01-29T13:55:45.354Z,3.89
2023-01-29T13:59:23.018Z,3.92
2023-01-29T14:02:44.804Z,3.95
2023-01-29T14:06:06.739Z,3.96
2023-01-29T14:10:14.292Z,3.96
2023-01-29T14:13:36.519Z,3.97
2023-01-29T14:17:03.371Z,3.96
2023-01-29T14:20:43.168Z,3.97
2023-01-29T14:24:17.853Z,3.96
2023-01-29T14:27:39.214Z,3.96
2023-01-29T14:31:01.676Z,3.94
2023-01-29T14:34:29.786Z,3.92
2023-01-29T14:37:54.366Z,3.94
2023-01-29T14:41:24.240Z,3.94
2023-01-29T14:45:22.323Z,3.93
2023-01-29T14:48:48.565Z,3.93
2023-01-29T14:52:14.291Z,3.88
2023-01-29T14:55:40.446Z,3.86
2023-01-29T14:59:14.447Z,3.82
2023-01-29T15:02:41.471Z,3.82
2023-01-29T15:06:04.099Z,3.80
2023-01-29T15:09:37.039Z,3.76
2023-01-29T15:13:04.266Z,3.75
2023-01-29T15:16:30.301Z,3.73
2023-01-29T15:19:52.191Z,3.69
2023-01-29T15:23:27.409Z,3.64
2023-01-29T15:26:50.353Z,3.59
2023-01-29T15:30:17.510Z,3.57
2023-01-29T15:33:39.599Z,3.54
2023-01-29T15:37:01.630Z,3.54
2023-01-29T15:40:23.714Z,3.54
2023-01-29T15:43:48.919Z,3.48
2023-01-29T15:47:11.252Z,3.50
2023-01-29T15:50:35.638Z,3.46
2023-01-29T15:54:00.808Z,3.43
2023-01-29T15:57:25.978Z,3.43
2023-01-29T16:00:54.407Z,3.43
2023-01-29T16:04:20.142Z,3.36
2023-01-29T16:07:42.298Z,3.37
2023-01-29T16:11:07.158Z,3.34
2023-01-29T16:14:31.048Z,3.29
2023-01-29T16:17:54.430Z,3.29
2023-01-29T16:21:18.775Z,3.29
2023-01-29T16:24:40.670Z,3.31
2023-01-29T16:28:06.423Z,3.31
2023-01-29T16:31:30.317Z,3.32
2023-01-29T16:34:58.565Z,3.33
2023-01-29T16:38:33.821Z,3.27
2023-01-29T16:42:24.206Z,3.29
2023-01-29T16:46:03.408Z,3.27
2023-01-29T16:49:45.493Z,3.23
2023-01-29T16:53:13.878Z,3.22
2023-01-29T16:56:36.001Z,3.22
2023-01-29T17:00:00.284Z,3.21
2023-01-29T17:03:22.478Z,3.19
2023-01-29T17:06:47.757Z,3.17
2023-01-29T17:10:18.662Z,3.15
2023-01-29T17:13:43.663Z,3.17
2023-01-29T17:17:06.728Z,3.11
2023-01-29T17:20:28.658Z,3.08
2023-01-29T17:23:49.982Z,3.07
2023-01-29T17:27:19.790Z,3.08
2023-01-29T17:30:41.391Z,3.08
2023-01-29T17:34:02.796Z,3.11
2023-01-29T17:37:24.646Z,3.10
2023-01-29T17:40:49.042Z,3.11
2023-01-29T17:44:12.070Z,3.11
2023-01-29T17:47:33.823Z,3.14
2023-01-29T17:50:56.853Z,3.09
2023-01-29T17:54:18.142Z,3.11
2023-01-29T17:57:40.049Z,3.11
2023-01-29T18:01:03.237Z,3.11
2023-01-29T18:04:25.054Z,3.11
2023-01-29T18:07:48.395Z,3.09
2023-01-29T18:11:13.603Z,3.09
2023-01-29T18:14:35.094Z,3.10
2023-01-29T18:17:58.210Z,3.10
2023-01-29T18:21:20.182Z,3.10
2023-01-29T18:24:41.911Z,3.10
2023-01-29T18:28:04.357Z,3.10
2023-01-29T18:31:26.214Z,3.10
2023-01-29T18:34:49.406Z,3.09
2023-01-29T18:38:11.215Z,3.06
2023-01-29T18:41:33.067Z,3.07
2023-01-29T18:44:54.851Z,3.06
2023-01-29T18:48:16.846Z,3.08
2023-01-29T18:51:39.658Z,3.02
2023-01-29T18:55:01.104Z,2.99
2023-01-29T18:58:26.180Z,2.98
2023-01-29T19:01:50.341Z,3.00
2023-01-29T19:05:12.641Z,3.00
2023-01-29T19:08:36.065Z,3.01
2023-01-29T19:11:57.730Z,3.01
2023-01-29T19:15:22.001Z,2.97
2023-01-29T19:18:43.907Z,2.98
2023-01-29T19:22:06.000Z,3.00
2023-01-29T19:25:29.341Z,2.96
2023-01-29T19:28:51.032Z,2.97
2023-01-29T19:32:12.763Z,2.99
2023-01-29T19:35:34.118Z,2.95
2023-01-29T19:38:56.121Z,2.98
2023-01-29T19:42:20.341Z,2.93
2023-01-29T19:45:49.946Z,2.92
2023-01-29T19:49:12.086Z,2.94
2023-01-29T19:52:50.304Z,2.95
2023-01-29T19:56:14.900Z,2.94
2023-01-29T19:59:37.674Z,2.92
2023-01-29T20:02:59.534Z,2.86
2023-01-29T20:06:25.089Z,2.91
2023-01-29T20:09:46.693Z,2.87
2023-01-29T20:13:08.236Z,2.88
2023-01-29T20:16:30.964Z,2.88
2023-01-29T20:19:52.615Z,2.88
2023-01-29T20:23:25.082Z,2.83
2023-01-29T20:26:57.113Z,2.89
2023-01-29T20:30:19.696Z,2.89
2023-01-29T20:33:44.357Z,2.91
2023-01-29T20:37:05.782Z,2.84
2023-01-29T20:40:28.058Z,2.84
2023-01-29T20:43:50.975Z,2.84
2023-01-29T20:47:12.721Z,2.85
2023-01-29T20:50:35.969Z,2.81
2023-01-29T20:53:57.781Z,2.81
2023-01-29T20:57:19.356Z,2.80
2023-01-29T21:00:41.413Z,2.77
2023-01-29T21:04:03.557Z,2.74
2023-01-29T21:07:26.431Z,2.75
2023-01-29T21:10:50.310Z,2.77
2023-01-29T21:14:12.482Z,2.80
2023-01-29T21:17:34.027Z,2.78
2023-01-29T21:20:56.110Z,2.81
2023-01-29T21:24:19.609Z,2.77
2023-01-29T21:27:41.277Z,2.78
2023-01-29T21:31:06.816Z,2.75
2023-01-29T21:34:28.643Z,2.78
2023-01-29T21:37:50.941Z,2.82
2023-01-29T21:41:14.253Z,2.78
2023-01-29T21:44:35.226Z,2.80
2023-01-29T21:47:56.765Z,2.81
2023-01-29T21:51:18.992Z,2.84
2023-01-29T21:54:40.958Z,2.84
2023-01-29T21:58:04.364Z,2.78
2023-01-29T22:01:37.996Z,2.72
2023-01-29T22:05:17.504Z,2.72
2023-01-29T22:08:39.687Z,2.74
2023-01-29T22:12:01.466Z,2.72
2023-01-29T22:15:24.311Z,2.72
2023-01-29T22:18:46.050Z,2.72
2023-01-29T22:22:08.217Z,2.75
2023-01-29T22:25:29.998Z,2.77
2023-01-29T22:28:51.707Z,2.58
2023-01-29T22:32:14.314Z,2.68
2023-01-29T22:35:35.921Z,2.72
2023-01-29T22:38:57.295Z,2.72
2023-01-29T22:42:20.097Z,2.77
2023-01-29T22:45:41.927Z,2.80
2023-01-29T22:49:04.807Z,2.82
2023-01-29T22:52:27.965Z,2.82
2023-01-29T22:55:55.528Z,2.82
2023-01-29T22:59:17.343Z,2.85
2023-01-29T23:02:39.198Z,2.86
2023-01-29T23:06:02.146Z,2.88
2023-01-29T23:09:23.877Z,2.95
2023-01-29T23:12:45.681Z,2.97
2023-01-29T23:16:08.188Z,2.94
2023-01-29T23:19:30.537Z,2.91
2023-01-29T23:22:53.920Z,2.91
2023-01-29T23:26:34.247Z,2.92
2023-01-29T23:29:55.739Z,2.96
2023-01-29T23:33:17.483Z,2.97
2023-01-29T23:36:39.195Z,2.92
2023-01-29T23:40:02.630Z,2.92
2023-01-29T23:43:24.524Z,2.94
2023-01-29T23:46:45.915Z,2.92
2023-01-29T23:50:09.069Z,2.94
2023-01-29T23:53:30.677Z,2.88
2023-01-29T23:56:53.205Z,2.87
